Time;durP1;ratioP1;P1;durP2;ratioP2;P2;SDS_P1;SDS_P2;PMS_P1;PMS_P2;Temp;Humidity;BMP_temperature;BMP_pressure;BME280_temperature;BME280_humidity;BME280_pressure;Samples;Min_cycle;Max_cycle;Signal;HPM_P1;HPM_P2
2023/03/28 07:29:48;;;;;;;11.60;4.30;;;4.80;87.50;;;;;;20980895;28;20877;-72
2023/03/28 07:39:49;;;;;;;9.53;4.40;;;5.00;87.40;;;;;;20983086;28;20234;-74
2023/03/28 07:49:51;;;;;;;10.97;4.50;;;5.40;99.90;;;;;;20982007;28;20210;-73
2023/03/28 07:59:54;;;;;;;9.73;4.30;;;6.10;99.90;;;;;;20981280;28;20297;-75
2023/03/28 08:09:56;;;;;;;9.20;4.27;;;6.00;99.90;;;;;;20980164;28;20209;-73
2023/03/28 08:20:00;;;;;;;10.00;3.90;;;;;;;;;;20979057;28;20305;-77
2023/03/28 08:30:02;;;;;;;16.30;3.20;;;5.90;99.90;;;;;;20978899;28;20216;-75
2023/03/28 08:40:09;;;;;;;9.40;2.43;;;5.60;99.90;;;;;;20928869;28;20219;-74
2023/03/28 08:54:26;;;;;;;8.33;2.77;;;7.10;73.60;;;;;;20983362;28;20572;-75
2023/03/28 09:04:33;;;;;;;6.93;2.20;;;7.40;71.80;;;;;;20982546;28;20210;-73
2023/03/28 09:14:47;;;;;;;9.37;2.20;;;7.20;69.00;;;;;;20981981;28;20218;-74
2023/03/28 09:25:20;;;;;;;17.40;2.87;;;7.40;67.70;;;;;;20981472;28;20225;-76
2023/03/28 09:35:24;;;;;;;6.10;2.23;;;7.90;65.40;;;;;;20980586;28;20213;-74
2023/03/28 09:45:34;;;;;;;8.03;2.00;;;7.60;58.60;;;;;;20979602;28;20235;-76
2023/03/28 09:55:36;;;;;;;9.67;1.83;;;7.20;55.70;;;;;;20978437;28;20260;-73
2023/03/28 10:05:39;;;;;;;2.73;1.47;;;7.70;55.40;;;;;;20923853;28;20236;-73
2023/03/28 10:15:45;;;;;;;5.60;1.53;;;8.00;52.90;;;;;;20920603;28;20215;-72
2023/03/28 10:25:51;;;;;;;6.33;1.70;;;8.10;52.80;;;;;;20920514;28;20716;-71
2023/03/28 10:36:00;;;;;;;5.77;1.50;;;8.00;51.70;;;;;;20885313;28;20215;-72
2023/03/28 10:46:13;;;;;;;15.93;1.80;;;8.30;53.00;;;;;;20835827;28;20640;-73
2023/03/28 10:56:40;;;;;;;27.07;2.07;;;8.40;65.10;;;;;;20836559;28;20236;-71
2023/03/28 11:07:00;;;;;;;11.13;1.70;;;8.80;50.90;;;;;;20835470;28;20278;-72
2023/03/28 11:17:23;;;;;;;92.83;5.10;;;8.80;50.40;;;;;;20833819;28;20262;-73
2023/03/28 11:27:38;;;;;;;12.47;2.07;;;8.60;50.90;;;;;;20833821;28;20701;-73
2023/03/28 11:38:11;;;;;;;5.57;1.80;;;8.80;51.10;;;;;;20833499;28;20664;-73
2023/03/28 11:48:45;;;;;;;4.97;1.40;;;9.20;49.80;;;;;;20832898;28;20296;-74
2023/03/28 11:58:51;;;;;;;17.87;2.87;;;9.50;49.40;;;;;;20831643;28;20220;-73
2023/03/28 12:08:56;;;;;;;104.47;5.80;;;9.70;49.10;;;;;;20835306;28;20229;-73
2023/03/28 12:19:01;;;;;;;19.27;2.77;;;9.90;47.70;;;;;;20913204;28;20608;-73
2023/03/28 12:29:16;;;;;;;22.07;2.27;;;10.00;46.50;;;;;;20911771;28;20240;-74
2023/03/28 12:39:42;;;;;;;4.87;1.60;;;10.40;46.10;;;;;;20911410;28;20229;-72
2023/03/28 12:50:03;;;;;;;8.07;1.77;;;10.60;45.70;;;;;;20910633;28;20247;-75
2023/03/28 13:00:24;;;;;;;9.20;1.73;;;10.90;45.60;;;;;;20912142;28;20218;-74
2023/03/28 13:10:38;;;;;;;12.53;2.43;;;11.40;45.30;;;;;;20910562;28;20639;-72
2023/03/28 13:20:44;;;;;;;3.20;1.30;;;11.80;42.30;;;;;;20909557;28;20254;-71
2023/03/28 13:31:02;;;;;;;6.27;1.47;;;11.60;42.20;;;;;;20864197;28;20320;-74
2023/03/28 13:41:07;;;;;;;4.10;1.80;;;12.20;42.00;;;;;;20896722;28;20232;-78
2023/03/28 13:51:15;;;;;;;43.70;3.20;;;12.50;41.40;;;;;;20842138;28;20283;-79
2023/03/28 14:01:26;;;;;;;21.03;2.43;;;12.80;41.30;;;;;;20896254;28;20204;-78
2023/03/28 14:11:35;;;;;;;19.07;2.00;;;13.90;40.50;;;;;;20922806;28;20318;-78
2023/03/28 14:21:36;;;;;;;6.13;1.90;;;15.40;38.60;;;;;;20921086;28;20727;-77
2023/03/28 14:31:44;;;;;;;4.37;1.23;;;17.10;36.90;;;;;;20898922;28;20759;-78
2023/03/28 14:41:46;;;;;;;4.13;1.30;;;16.80;35.90;;;;;;20840568;28;20219;-75
2023/03/28 14:51:57;;;;;;;3.90;1.40;;;16.40;36.20;;;;;;20837282;28;20271;-73
2023/03/28 15:02:00;;;;;;;2.73;1.33;;;16.80;36.00;;;;;;20839778;28;20295;-77
2023/03/28 15:12:06;;;;;;;4.80;1.57;;;16.80;37.40;;;;;;20839741;28;20240;-72
2023/03/28 15:22:12;;;;;;;10.53;1.93;;;16.60;38.10;;;;;;20835525;28;20207;-74
2023/03/28 15:32:16;;;;;;;8.32;1.92;;;18.00;37.30;;;;;;20860273;28;20451;-73
2023/03/28 15:42:18;;;;;;;6.43;1.90;;;18.60;37.00;;;;;;20910472;28;20447;-69
2023/03/28 15:52:21;;;;;;;7.47;1.70;;;18.90;34.80;;;;;;20915419;28;20718;-71
2023/03/28 16:02:23;;;;;;;8.63;5.17;;;;;;;;;;20914513;28;20207;-70
2023/03/28 16:12:26;;;;;;;21.60;4.20;;;;;;;;;;20913739;28;20242;-70
2023/03/28 16:22:28;;;;;;;3.17;1.50;;;;;;;;;;20904112;28;20212;-77
2023/03/28 16:32:30;;;;;;;5.83;2.00;;;;;;;;;;20941258;28;20228;-74
2023/03/28 16:42:32;;;;;;;4.90;1.77;;;12.20;38.60;;;;;;20927763;28;20707;-76
2023/03/28 16:52:40;;;;;;;5.30;1.97;;;11.40;39.70;;;;;;20956817;28;20289;-76
2023/03/28 17:02:46;;;;;;;5.27;1.87;;;11.10;40.40;;;;;;20937495;28;20201;-74
2023/03/28 17:12:48;;;;;;;4.10;1.50;;;10.80;41.00;;;;;;20960052;28;20233;-75
2023/03/28 17:28:13;;;;;;;2.57;1.60;;;10.50;41.60;;;;;;20996372;28;20571;-72
2023/03/28 17:38:14;;;;;;;7.03;1.80;;;10.20;42.10;;;;;;20920728;28;20626;-72
2023/03/28 17:51:44;;;;;;;4.43;1.80;;;;;;;;;;21066310;28;21058;-75
2023/03/28 18:01:46;;;;;;;4.77;2.40;;;9.60;43.90;;;;;;21061039;28;20207;-71
2023/03/28 18:11:47;;;;;;;5.67;2.63;;;9.30;44.60;;;;;;20983823;28;20238;-74
2023/03/28 18:21:49;;;;;;;9.27;3.53;;;8.90;46.40;;;;;;20982027;28;20226;-74
2023/03/28 18:31:51;;;;;;;7.50;3.50;;;8.60;47.20;;;;;;20981626;28;20211;-74
2023/03/28 18:41:52;;;;;;;13.63;6.70;;;8.60;47.70;;;;;;20977630;28;20215;-75
2023/03/28 18:52:02;;;;;;;11.13;5.47;;;;;;;;;;20978796;28;20211;-70
2023/03/28 19:02:05;;;;;;;6.83;3.83;;;8.50;48.40;;;;;;20929960;28;20210;-74
2023/03/28 19:12:07;;;;;;;7.73;4.90;;;8.40;48.80;;;;;;20918748;28;20436;-77
2023/03/28 19:22:09;;;;;;;12.30;5.63;;;8.50;50.80;;;;;;20922052;28;20486;-74
2023/03/28 19:32:11;;;;;;;13.77;5.63;;;8.40;50.80;;;;;;20921172;28;20204;-74
2023/03/28 19:42:16;;;;;;;13.10;6.63;;;8.40;50.80;;;;;;20920273;28;20278;-75
2023/03/28 19:52:18;;;;;;;10.90;5.23;;;8.40;51.20;;;;;;20919718;28;20257;-76
2023/03/28 20:02:20;;;;;;;16.67;6.43;;;8.30;51.80;;;;;;20920139;28;20242;-75
2023/03/28 20:12:21;;;;;;;22.00;6.87;;;8.20;52.30;;;;;;20999626;28;20214;-81
2023/03/28 20:22:24;;;;;;;18.55;8.60;;;8.80;54.20;;;;;;20991687;28;20971;-76
2023/03/28 20:32:26;;;;;;;16.93;8.10;;;8.30;54.20;;;;;;20998290;28;20521;-75
2023/03/28 20:42:28;;;;;;;13.43;6.37;;;8.30;54.20;;;;;;20996750;28;20297;-75
2023/03/28 20:52:37;;;;;;;14.60;6.67;;;8.30;54.00;;;;;;20997270;28;20214;-74
2023/03/28 21:02:39;;;;;;;16.60;7.40;;;8.30;54.10;;;;;;20992794;28;20225;-73
2023/03/28 21:12:42;;;;;;;13.50;6.20;;;8.30;54.40;;;;;;20913763;28;20293;-74
2023/03/28 21:22:44;;;;;;;11.50;5.67;;;8.30;54.60;;;;;;20911321;28;20564;-79
2023/03/28 21:32:46;;;;;;;11.80;5.67;;;8.20;54.90;;;;;;20912620;28;20215;-79
2023/03/28 21:45:47;;;;;;;10.10;5.20;;;8.20;55.40;;;;;;21322737;27;20278;-77
2023/03/28 21:55:49;;;;;;;11.30;5.70;;;8.20;55.80;;;;;;21217898;27;20622;-78
2023/03/28 22:05:52;;;;;;;8.90;5.00;;;8.10;56.60;;;;;;21235728;27;20210;-77
2023/03/28 22:15:58;;;;;;;9.07;5.60;;;8.10;57.10;;;;;;21235287;27;20211;-76
2023/03/28 22:26:02;;;;;;;13.13;6.57;;;8.00;57.60;;;;;;21234374;27;20265;-78
2023/03/28 22:36:04;;;;;;;8.43;5.00;;;;;;;;;;21233320;27;20271;-78
2023/03/28 22:46:07;;;;;;;9.87;5.30;;;8.00;58.70;;;;;;21233941;27;20208;-78
2023/03/28 22:56:09;;;;;;;12.37;5.60;;;8.10;58.80;;;;;;21180742;28;20309;-77
2023/03/28 23:06:12;;;;;;;12.93;5.33;;;8.10;58.80;;;;;;21174381;28;20205;-77
2023/03/28 23:16:14;;;;;;;13.87;5.83;;;8.20;59.10;;;;;;21173623;28;20281;-76
2023/03/28 23:26:16;;;;;;;13.13;5.83;;;8.20;59.60;;;;;;21172706;28;20576;-77
2023/03/28 23:36:19;;;;;;;14.87;5.73;;;8.20;59.80;;;;;;21171577;28;20230;-77
2023/03/28 23:46:21;;;;;;;9.87;5.20;;;8.30;60.10;;;;;;21171341;28;20202;-78
2023/03/28 23:56:24;;;;;;;9.17;4.63;;;8.20;60.10;;;;;;21152273;28;20253;-77
